createdAt,value
2022-09-15T00:02:05.455Z,2.53
2022-09-15T00:07:06.986Z,2.33
2022-09-15T00:12:08.441Z,2.30
2022-09-15T00:17:10.177Z,2.60
2022-09-15T00:22:11.980Z,2.60
2022-09-15T00:27:13.369Z,2.63
2022-09-15T00:32:14.748Z,2.47
2022-09-15T00:37:16.164Z,2.33
2022-09-15T00:42:22.129Z,3.40
2022-09-15T00:47:28.889Z,2.33
2022-09-15T00:52:36.482Z,1.80
2022-09-15T00:57:53.072Z,2.50
2022-09-15T01:02:54.986Z,2.50
2022-09-15T01:07:57.910Z,2.50
2022-09-15T01:13:02.658Z,2.13
2022-09-15T01:18:13.123Z,1.90
2022-09-15T01:23:36.446Z,2.10
2022-09-15T01:29:15.405Z,2.30
2022-09-15T01:34:18.336Z,3.10
2022-09-15T01:39:21.376Z,2.50
2022-09-15T01:44:26.011Z,2.27
2022-09-15T01:49:50.947Z,3.03
2022-09-15T01:54:56.507Z,3.10
2022-09-15T01:59:57.920Z,3.43
2022-09-15T02:05:07.133Z,2.53
2022-09-15T02:10:13.564Z,2.57
2022-09-15T02:15:24.916Z,3.10
2022-09-15T02:20:38.863Z,3.00
2022-09-15T02:25:47.061Z,2.33
2022-09-15T02:30:49.100Z,2.70
2022-09-15T02:35:51.771Z,2.80
2022-09-15T02:40:53.246Z,2.60
2022-09-15T02:45:55.079Z,2.87
2022-09-15T02:50:56.546Z,2.83
2022-09-15T02:55:58.048Z,2.80
2022-09-15T03:01:06.117Z,2.40
2022-09-15T03:06:16.742Z,3.00
2022-09-15T03:11:20.282Z,3.10
2022-09-15T03:16:21.926Z,2.93
2022-09-15T03:21:23.380Z,3.20
2022-09-15T03:26:24.864Z,2.80
2022-09-15T03:31:26.389Z,3.60
2022-09-15T03:36:27.837Z,2.20
2022-09-15T03:41:29.374Z,2.67
2022-09-15T03:46:30.771Z,2.70
2022-09-15T03:51:32.162Z,2.60
2022-09-15T03:56:33.574Z,2.70
2022-09-15T04:01:35.797Z,2.53
2022-09-15T04:06:37.328Z,3.13
2022-09-15T04:11:39.461Z,2.70
2022-09-15T04:16:40.954Z,3.23
2022-09-15T04:21:42.426Z,3.90
2022-09-15T04:26:44.542Z,3.30
2022-09-15T04:31:46.886Z,3.37
2022-09-15T04:36:48.377Z,3.63
2022-09-15T04:41:49.795Z,3.27
2022-09-15T04:46:51.316Z,3.57
2022-09-15T04:51:53.690Z,3.10
2022-09-15T04:56:55.083Z,3.40
2022-09-15T05:01:56.553Z,2.97
2022-09-15T05:06:58.079Z,2.73
2022-09-15T05:11:59.461Z,2.80
2022-09-15T05:17:00.894Z,2.97
2022-09-15T05:22:02.298Z,3.20
2022-09-15T05:27:03.893Z,2.53
2022-09-15T05:32:05.351Z,2.70
2022-09-15T05:37:06.832Z,3.50
2022-09-15T05:42:08.865Z,3.47
2022-09-15T05:47:10.455Z,3.00
2022-09-15T05:52:11.851Z,2.80
2022-09-15T05:57:13.342Z,3.00
2022-09-15T06:02:14.742Z,2.10
2022-09-15T06:07:16.509Z,2.47
2022-09-15T06:12:19.087Z,2.30
2022-09-15T06:17:23.038Z,2.30
2022-09-15T06:22:24.422Z,2.83
2022-09-15T06:27:26.363Z,2.50
2022-09-15T06:32:27.750Z,3.03
2022-09-15T06:37:29.165Z,2.60
2022-09-15T06:42:30.690Z,2.80
2022-09-15T06:47:34.052Z,2.50
2022-09-15T06:52:36.184Z,2.87
2022-09-15T06:57:37.593Z,3.07
2022-09-15T07:02:39.127Z,3.53
2022-09-15T07:07:40.688Z,3.30
2022-09-15T07:12:42.195Z,3.03
2022-09-15T07:17:43.614Z,2.97
2022-09-15T07:22:45.077Z,3.30
2022-09-15T07:27:46.488Z,2.70
2022-09-15T07:32:47.879Z,4.90
2022-09-15T07:37:49.738Z,3.00
2022-09-15T07:42:51.100Z,3.00
2022-09-15T07:47:52.725Z,2.40
2022-09-15T07:52:57.221Z,4.30
2022-09-15T07:58:03.175Z,2.33
2022-09-15T08:03:05.029Z,2.57
2022-09-15T08:08:06.761Z,2.00
2022-09-15T08:13:08.266Z,1.80
2022-09-15T08:18:09.746Z,1.90
2022-09-15T08:23:11.570Z,2.60
2022-09-15T08:28:12.945Z,2.20
2022-09-15T08:33:14.340Z,1.93
2022-09-15T08:38:15.704Z,2.03
2022-09-15T08:43:21.045Z,1.87
2022-09-15T08:48:46.453Z,1.77
2022-09-15T08:53:53.697Z,2.20
2022-09-15T08:58:55.189Z,1.90
2022-09-15T09:04:18.138Z,2.10
2022-09-15T09:09:28.994Z,1.77
2022-09-15T09:15:00.806Z,1.73
2022-09-15T09:20:24.741Z,1.63
2022-09-15T09:25:27.950Z,2.50
2022-09-15T09:30:31.246Z,1.30
2022-09-15T09:35:44.972Z,1.70
2022-09-15T09:40:46.845Z,1.50
2022-09-15T09:45:48.410Z,1.30
2022-09-15T09:50:50.611Z,1.60
2022-09-15T09:56:14.109Z,1.13
2022-09-15T10:01:23.671Z,1.23
2022-09-15T10:06:29.188Z,1.30
2022-09-15T10:11:39.455Z,1.13
2022-09-15T10:16:40.920Z,1.20
2022-09-15T10:21:42.344Z,1.07
2022-09-15T10:26:44.569Z,1.00
2022-09-15T10:31:46.181Z,0.90
2022-09-15T10:36:47.676Z,1.00
2022-09-15T10:41:59.499Z,0.80
2022-09-15T10:47:19.593Z,0.77
2022-09-15T10:53:16.602Z,1.30
2022-09-15T10:58:56.731Z,0.90
2022-09-15T11:04:21.233Z,1.60
2022-09-15T11:09:28.325Z,1.70
2022-09-15T11:14:57.725Z,1.33
2022-09-15T11:20:06.632Z,1.03
2022-09-15T11:25:23.839Z,0.70
2022-09-15T11:30:30.272Z,1.20
2022-09-15T11:35:44.672Z,1.20
2022-09-15T11:40:55.328Z,0.80
2022-09-15T11:45:57.892Z,1.03
2022-09-15T11:51:00.971Z,0.63
2022-09-15T11:56:21.757Z,1.10
2022-09-15T12:01:25.720Z,0.90
2022-09-15T12:06:34.452Z,1.13
2022-09-15T12:11:40.522Z,0.80
2022-09-15T12:16:42.355Z,0.93
2022-09-15T12:21:57.339Z,1.33
2022-09-15T12:27:00.640Z,1.03
2022-09-15T12:32:30.834Z,1.20
2022-09-15T12:37:43.981Z,1.80
2022-09-15T12:42:45.534Z,0.90
2022-09-15T12:47:54.612Z,1.20
2022-09-15T12:53:02.039Z,0.83
2022-09-15T12:58:08.826Z,0.83
2022-09-15T13:03:49.343Z,1.13
2022-09-15T13:09:27.097Z,0.77
2022-09-15T13:14:36.164Z,1.00
2022-09-15T13:19:51.638Z,0.80
2022-09-15T13:25:02.356Z,1.07
2022-09-15T13:30:41.652Z,0.90
2022-09-15T13:35:52.438Z,0.70
2022-09-15T13:41:21.220Z,1.23
2022-09-15T13:46:42.935Z,1.03
2022-09-15T13:51:59.612Z,0.60
2022-09-15T13:57:02.179Z,1.13
2022-09-15T14:02:08.954Z,0.97
2022-09-15T14:07:22.270Z,1.00
2022-09-15T14:12:23.683Z,1.13
2022-09-15T14:17:27.197Z,0.73
2022-09-15T14:22:30.869Z,0.73
2022-09-15T14:27:33.776Z,1.00
2022-09-15T14:32:39.150Z,0.90
2022-09-15T14:37:40.773Z,0.57
2022-09-15T14:42:43.944Z,0.93
2022-09-15T14:47:45.509Z,0.80
2022-09-15T14:52:49.755Z,0.87
2022-09-15T14:57:59.681Z,0.70
2022-09-15T15:03:30.214Z,0.50
2022-09-15T15:08:41.009Z,0.60
2022-09-15T15:13:44.013Z,0.80
2022-09-15T15:18:45.503Z,0.50
2022-09-15T15:23:47.228Z,0.80
2022-09-15T15:28:48.662Z,1.50
2022-09-15T15:33:55.745Z,0.70
2022-09-15T15:38:59.381Z,0.60
2022-09-15T15:44:07.657Z,0.90
2022-09-15T15:49:15.605Z,0.70
2022-09-15T15:54:17.048Z,1.00
2022-09-15T15:59:18.964Z,0.70
2022-09-15T16:04:20.376Z,1.20
2022-09-15T16:09:21.786Z,0.97
2022-09-15T16:14:23.214Z,1.30
2022-09-15T16:19:24.707Z,1.00
2022-09-15T16:24:26.136Z,0.90
2022-09-15T16:29:35.944Z,1.20
2022-09-15T16:34:37.437Z,0.50
2022-09-15T16:39:38.836Z,0.70
2022-09-15T16:44:40.249Z,0.60
2022-09-15T16:49:42.170Z,1.10
2022-09-15T16:54:43.533Z,1.27
2022-09-15T16:59:44.931Z,0.73
2022-09-15T17:04:46.328Z,1.53
2022-09-15T17:09:49.800Z,0.63
2022-09-15T17:14:51.242Z,1.20
2022-09-15T17:19:52.644Z,1.10
2022-09-15T17:24:54.065Z,1.37
2022-09-15T17:29:55.450Z,0.73
2022-09-15T17:34:56.883Z,0.63
2022-09-15T17:39:59.107Z,0.70
2022-09-15T17:45:01.292Z,0.60
2022-09-15T17:50:02.707Z,0.50
2022-09-15T17:55:18.065Z,0.50
2022-09-15T18:00:20.796Z,0.60
2022-09-15T18:05:35.928Z,0.63
2022-09-15T18:10:37.309Z,0.80
2022-09-15T18:15:38.702Z,1.00
2022-09-15T18:20:40.397Z,0.90
2022-09-15T18:25:42.340Z,0.77
2022-09-15T18:30:45.947Z,0.50
2022-09-15T18:35:52.891Z,1.00
2022-09-15T18:40:56.200Z,0.60
2022-09-15T18:45:59.286Z,1.30
2022-09-15T18:51:01.084Z,0.70
2022-09-15T18:56:12.387Z,1.17
2022-09-15T19:01:14.501Z,0.87
2022-09-15T19:06:16.056Z,0.97
2022-09-15T19:11:17.584Z,1.13
2022-09-15T19:16:22.753Z,1.00
2022-09-15T19:21:27.329Z,1.00
2022-09-15T19:26:29.477Z,0.93
2022-09-15T19:31:31.144Z,2.70
2022-09-15T19:36:32.617Z,0.80
2022-09-15T19:41:34.235Z,0.77
2022-09-15T19:46:35.597Z,1.00
2022-09-15T19:51:37.230Z,0.80
2022-09-15T19:56:38.751Z,0.77
2022-09-15T20:01:40.298Z,1.20
2022-09-15T20:06:42.106Z,0.50
2022-09-15T20:11:43.515Z,0.77
2022-09-15T20:16:44.927Z,0.73
2022-09-15T20:21:51.229Z,1.23
2022-09-15T20:26:53.225Z,0.70
2022-09-15T20:31:54.667Z,1.00
2022-09-15T20:36:56.124Z,1.20
2022-09-15T20:41:58.004Z,0.70
2022-09-15T20:46:59.459Z,1.10
2022-09-15T20:52:00.991Z,0.93
2022-09-15T20:57:02.340Z,1.90
2022-09-15T21:02:07.321Z,1.07
2022-09-15T21:07:08.730Z,1.20
2022-09-15T21:12:10.460Z,1.10
2022-09-15T21:17:11.878Z,1.67
2022-09-15T21:22:13.231Z,0.90
2022-09-15T21:27:26.805Z,2.03
2022-09-15T21:32:29.354Z,1.10
2022-09-15T21:37:31.878Z,0.80
2022-09-15T21:42:33.280Z,0.90
2022-09-15T21:47:34.656Z,0.93
2022-09-15T21:52:36.156Z,1.20
2022-09-15T21:57:37.530Z,0.83
2022-09-15T22:02:38.936Z,1.47
2022-09-15T22:07:40.382Z,1.20
2022-09-15T22:12:41.790Z,1.10
2022-09-15T22:17:43.191Z,1.20
2022-09-15T22:22:45.750Z,0.80
2022-09-15T22:27:47.155Z,0.80
2022-09-15T22:32:48.556Z,0.90
2022-09-15T22:37:49.962Z,0.73
2022-09-15T22:42:51.346Z,0.97
2022-09-15T22:47:53.221Z,1.00
2022-09-15T22:52:55.593Z,0.90
2022-09-15T22:57:57.126Z,1.07
2022-09-15T23:02:59.007Z,1.00
2022-09-15T23:08:00.605Z,0.90
2022-09-15T23:13:02.071Z,0.70
2022-09-15T23:18:03.616Z,1.20
2022-09-15T23:23:05.176Z,1.50
2022-09-15T23:28:06.544Z,0.80
2022-09-15T23:33:07.909Z,1.00
2022-09-15T23:38:09.307Z,1.00
2022-09-15T23:43:11.553Z,0.80
2022-09-15T23:48:13.923Z,0.73
2022-09-15T23:53:15.312Z,1.10
2022-09-15T23:58:17.288Z,1.00
